sensor_id;sensor_type;location;lat;lon;timestamp;pressure;altitude;pressure_sealevel;temperature;humidity
33625;BME280;19962;47.820;1.930;2023-09-30T00:02:15;101457.22;;;18.68;84.96
33625;BME280;19962;47.820;1.930;2023-09-30T00:04:41;101451.34;;;18.64;84.58
33625;BME280;19962;47.820;1.930;2023-09-30T00:07:07;101468.59;;;18.66;84.56
33625;BME280;19962;47.820;1.930;2023-09-30T00:09:33;101480.88;;;18.70;84.65
33625;BME280;19962;47.820;1.930;2023-09-30T00:11:59;101477.31;;;18.75;84.32
33625;BME280;19962;47.820;1.930;2023-09-30T00:14:26;101469.34;;;18.83;83.91
33625;BME280;19962;47.820;1.930;2023-09-30T00:16:52;101463.88;;;18.93;83.36
33625;BME280;19962;47.820;1.930;2023-09-30T00:19:18;101467.25;;;18.95;83.40
33625;BME280;19962;47.820;1.930;2023-09-30T00:21:44;101464.41;;;18.90;83.08
33625;BME280;19962;47.820;1.930;2023-09-30T00:24:10;101466.94;;;18.92;83.32
33625;BME280;19962;47.820;1.930;2023-09-30T00:26:36;101459.47;;;18.97;83.00
33625;BME280;19962;47.820;1.930;2023-09-30T00:29:02;101464.75;;;18.99;82.58
33625;BME280;19962;47.820;1.930;2023-09-30T00:31:32;101458.09;;;19.00;82.73
33625;BME280;19962;47.820;1.930;2023-09-30T00:33:58;101444.13;;;18.95;82.86
33625;BME280;19962;47.820;1.930;2023-09-30T00:36:25;101464.41;;;18.90;82.67
33625;BME280;19962;47.820;1.930;2023-09-30T00:38:51;101464.38;;;18.85;82.31
33625;BME280;19962;47.820;1.930;2023-09-30T00:41:18;101479.09;;;18.86;82.38
33625;BME280;19962;47.820;1.930;2023-09-30T00:43:46;101481.09;;;18.90;82.28
33625;BME280;19962;47.820;1.930;2023-09-30T00:46:29;101474.13;;;18.88;81.71
33625;BME280;19962;47.820;1.930;2023-09-30T00:48:58;101481.34;;;18.89;81.78
33625;BME280;19962;47.820;1.930;2023-09-30T00:51:25;101484.38;;;18.87;81.58
33625;BME280;19962;47.820;1.930;2023-09-30T00:53:52;101477.09;;;18.81;81.80
33625;BME280;19962;47.820;1.930;2023-09-30T00:56:19;101471.22;;;18.78;82.10
33625;BME280;19962;47.820;1.930;2023-09-30T00:58:48;101465.44;;;18.84;82.28
33625;BME280;19962;47.820;1.930;2023-09-30T01:01:17;101455.47;;;18.88;82.07
33625;BME280;19962;47.820;1.930;2023-09-30T01:03:45;101446.88;;;18.90;82.15
33625;BME280;19962;47.820;1.930;2023-09-30T01:06:12;101446.88;;;18.90;82.01
33625;BME280;19962;47.820;1.930;2023-09-30T01:08:39;101454.41;;;18.89;81.64
33625;BME280;19962;47.820;1.930;2023-09-30T01:11:06;101444.41;;;18.93;81.55
33625;BME280;19962;47.820;1.930;2023-09-30T01:13:33;101446.66;;;18.96;81.62
33625;BME280;19962;47.820;1.930;2023-09-30T01:16:04;101455.59;;;18.98;81.34
33625;BME280;19962;47.820;1.930;2023-09-30T01:18:31;101455.59;;;18.98;81.02
33625;BME280;19962;47.820;1.930;2023-09-30T01:21:01;101456.16;;;19.00;81.23
33625;BME280;19962;47.820;1.930;2023-09-30T01:23:29;101441.94;;;18.97;80.85
33625;BME280;19962;47.820;1.930;2023-09-30T01:25:56;101445.84;;;18.96;81.16
33625;BME280;19962;47.820;1.930;2023-09-30T01:28:22;101439.94;;;18.92;81.29
33625;BME280;19962;47.820;1.930;2023-09-30T01:30:49;101433.22;;;18.88;81.19
33625;BME280;19962;47.820;1.930;2023-09-30T01:33:15;101436.06;;;18.93;80.69
33625;BME280;19962;47.820;1.930;2023-09-30T01:35:44;101437.63;;;18.84;80.68
33625;BME280;19962;47.820;1.930;2023-09-30T01:38:11;101445.41;;;18.82;81.02
33625;BME280;19962;47.820;1.930;2023-09-30T01:40:37;101448.34;;;18.71;81.10
33625;BME280;19962;47.820;1.930;2023-09-30T01:43:06;101444.38;;;18.62;81.15
33625;BME280;19962;47.820;1.930;2023-09-30T01:45:32;101426.59;;;18.63;81.36
33625;BME280;19962;47.820;1.930;2023-09-30T01:47:58;101439.63;;;18.62;81.50
33625;BME280;19962;47.820;1.930;2023-09-30T01:50:24;101444.78;;;18.49;81.48
33625;BME280;19962;47.820;1.930;2023-09-30T01:52:50;101438.56;;;18.42;82.17
33625;BME280;19962;47.820;1.930;2023-09-30T01:55:16;101440.59;;;18.46;81.92
33625;BME280;19962;47.820;1.930;2023-09-30T01:57:42;101432.50;;;18.45;82.09
33625;BME280;19962;47.820;1.930;2023-09-30T02:00:09;101424.16;;;18.45;81.85
33625;BME280;19962;47.820;1.930;2023-09-30T02:02:35;101421.66;;;18.43;81.77
33625;BME280;19962;47.820;1.930;2023-09-30T02:05:02;101431.59;;;18.39;82.22
33625;BME280;19962;47.820;1.930;2023-09-30T02:07:29;101436.28;;;18.34;81.82
33625;BME280;19962;47.820;1.930;2023-09-30T02:09:57;101443.25;;;18.36;81.70
33625;BME280;19962;47.820;1.930;2023-09-30T02:12:23;101446.28;;;18.35;81.71
33625;BME280;19962;47.820;1.930;2023-09-30T02:14:49;101441.19;;;18.32;81.96
33625;BME280;19962;47.820;1.930;2023-09-30T02:17:15;101445.66;;;18.33;82.03
33625;BME280;19962;47.820;1.930;2023-09-30T02:19:41;101438.19;;;18.33;82.09
33625;BME280;19962;47.820;1.930;2023-09-30T02:22:07;101432.66;;;18.33;82.34
33625;BME280;19962;47.820;1.930;2023-09-30T02:24:33;101417.88;;;18.33;82.21
33625;BME280;19962;47.820;1.930;2023-09-30T02:26:59;101424.47;;;18.27;82.72
33625;BME280;19962;47.820;1.930;2023-09-30T02:29:25;101426.41;;;18.26;82.30
33625;BME280;19962;47.820;1.930;2023-09-30T02:31:52;101430.34;;;18.30;81.71
33625;BME280;19962;47.820;1.930;2023-09-30T02:34:20;101423.72;;;18.31;81.45
33625;BME280;19962;47.820;1.930;2023-09-30T02:36:46;101403.41;;;18.31;81.66
33625;BME280;19962;47.820;1.930;2023-09-30T02:39:12;101418.41;;;18.30;81.55
33625;BME280;19962;47.820;1.930;2023-09-30T02:41:42;101416.16;;;18.27;81.64
33625;BME280;19962;47.820;1.930;2023-09-30T02:44:09;101408.22;;;18.35;80.91
33625;BME280;19962;47.820;1.930;2023-09-30T02:46:35;101402.16;;;18.38;80.83
33625;BME280;19962;47.820;1.930;2023-09-30T02:49:01;101412.16;;;18.39;80.72
33625;BME280;19962;47.820;1.930;2023-09-30T02:51:28;101404.59;;;18.35;80.83
33625;BME280;19962;47.820;1.930;2023-09-30T02:53:55;101405.94;;;18.32;80.99
33625;BME280;19962;47.820;1.930;2023-09-30T02:56:21;101407.88;;;18.32;81.11
33625;BME280;19962;47.820;1.930;2023-09-30T02:58:50;101404.28;;;18.31;80.85
33625;BME280;19962;47.820;1.930;2023-09-30T03:01:17;101402.09;;;18.33;80.76
33625;BME280;19962;47.820;1.930;2023-09-30T03:03:44;101403.97;;;18.33;81.03
33625;BME280;19962;47.820;1.930;2023-09-30T03:06:10;101403.16;;;18.32;80.73
33625;BME280;19962;47.820;1.930;2023-09-30T03:08:37;101411.16;;;18.29;80.71
33625;BME280;19962;47.820;1.930;2023-09-30T03:11:03;101419.13;;;18.20;80.36
33625;BME280;19962;47.820;1.930;2023-09-30T03:13:30;101421.19;;;18.08;80.75
33625;BME280;19962;47.820;1.930;2023-09-30T03:15:56;101416.47;;;18.09;80.81
33625;BME280;19962;47.820;1.930;2023-09-30T03:18:23;101402.97;;;18.17;80.53
33625;BME280;19962;47.820;1.930;2023-09-30T03:20:57;101402.00;;;18.28;80.32
33625;BME280;19962;47.820;1.930;2023-09-30T03:23:27;101390.97;;;18.33;80.24
33625;BME280;19962;47.820;1.930;2023-09-30T03:25:59;101402.09;;;18.33;79.78
33625;BME280;19962;47.820;1.930;2023-09-30T03:28:26;101403.31;;;18.21;79.40
33625;BME280;19962;47.820;1.930;2023-09-30T03:30:52;101409.13;;;18.19;79.92
33625;BME280;19962;47.820;1.930;2023-09-30T03:33:18;101406.16;;;18.26;79.97
33625;BME280;19962;47.820;1.930;2023-09-30T03:35:45;101415.03;;;18.28;79.83
33625;BME280;19962;47.820;1.930;2023-09-30T03:38:12;101412.09;;;18.34;80.05
33625;BME280;19962;47.820;1.930;2023-09-30T03:40:42;101411.06;;;18.40;79.61
33625;BME280;19962;47.820;1.930;2023-09-30T03:43:13;101418.88;;;18.43;79.49
33625;BME280;19962;47.820;1.930;2023-09-30T03:45:40;101423.00;;;18.41;79.58
33625;BME280;19962;47.820;1.930;2023-09-30T03:48:07;101432.56;;;18.28;79.01
33625;BME280;19962;47.820;1.930;2023-09-30T03:50:34;101445.72;;;18.16;79.34
33625;BME280;19962;47.820;1.930;2023-09-30T03:53:04;101443.56;;;18.18;79.23
33625;BME280;19962;47.820;1.930;2023-09-30T03:55:33;101451.94;;;18.23;79.32
33625;BME280;19962;47.820;1.930;2023-09-30T03:57:59;101451.09;;;18.23;79.28
33625;BME280;19962;47.820;1.930;2023-09-30T04:00:25;101459.19;;;18.24;78.96
33625;BME280;19962;47.820;1.930;2023-09-30T04:02:52;101457.25;;;18.25;79.10
33625;BME280;19962;47.820;1.930;2023-09-30T04:05:24;101457.06;;;18.31;78.93
33625;BME280;19962;47.820;1.930;2023-09-30T04:08:02;101450.47;;;18.37;78.80
33625;BME280;19962;47.820;1.930;2023-09-30T04:10:29;101457.31;;;18.30;78.74
33625;BME280;19962;47.820;1.930;2023-09-30T04:12:58;101458.13;;;18.30;78.95
33625;BME280;19962;47.820;1.930;2023-09-30T04:15:24;101449.88;;;18.35;78.74
33625;BME280;19962;47.820;1.930;2023-09-30T04:17:50;101448.22;;;18.34;78.49
33625;BME280;19962;47.820;1.930;2023-09-30T04:20:17;101444.84;;;18.32;78.68
33625;BME280;19962;47.820;1.930;2023-09-30T04:22:49;101438.25;;;18.38;78.65
33625;BME280;19962;47.820;1.930;2023-09-30T04:25:16;101436.59;;;18.37;78.58
33625;BME280;19962;47.820;1.930;2023-09-30T04:27:43;101441.63;;;18.40;78.26
33625;BME280;19962;47.820;1.930;2023-09-30T04:30:10;101433.00;;;18.42;78.26
33625;BME280;19962;47.820;1.930;2023-09-30T04:32:37;101428.31;;;18.42;78.28
33625;BME280;19962;47.820;1.930;2023-09-30T04:35:05;101421.34;;;18.40;78.26
33625;BME280;19962;47.820;1.930;2023-09-30T04:37:31;101414.06;;;18.34;78.62
33625;BME280;19962;47.820;1.930;2023-09-30T04:39:57;101421.19;;;18.30;78.52
33625;BME280;19962;47.820;1.930;2023-09-30T04:42:24;101415.78;;;18.18;78.59
33625;BME280;19962;47.820;1.930;2023-09-30T04:44:52;101412.34;;;18.11;78.80
33625;BME280;19962;47.820;1.930;2023-09-30T04:47:18;101412.84;;;18.08;79.15
33625;BME280;19962;47.820;1.930;2023-09-30T04:49:45;101407.78;;;18.00;79.75
33625;BME280;19962;47.820;1.930;2023-09-30T04:52:11;101419.06;;;17.94;79.94
33625;BME280;19962;47.820;1.930;2023-09-30T04:54:37;101414.34;;;17.94;80.09
33625;BME280;19962;47.820;1.930;2023-09-30T04:57:03;101401.50;;;17.88;79.89
33625;BME280;19962;47.820;1.930;2023-09-30T04:59:29;101396.13;;;17.82;80.11
33625;BME280;19962;47.820;1.930;2023-09-30T05:01:56;101391.34;;;17.77;80.44
33625;BME280;19962;47.820;1.930;2023-09-30T05:04:22;101382.38;;;17.70;80.84
33625;BME280;19962;47.820;1.930;2023-09-30T05:06:51;101381.22;;;17.66;81.07
33625;BME280;19962;47.820;1.930;2023-09-30T05:09:17;101380.63;;;17.64;81.22
33625;BME280;19962;47.820;1.930;2023-09-30T05:11:43;101381.47;;;17.65;81.34
33625;BME280;19962;47.820;1.930;2023-09-30T05:14:10;101376.72;;;17.60;81.57
33625;BME280;19962;47.820;1.930;2023-09-30T05:16:36;101379.13;;;17.57;81.90
33625;BME280;19962;47.820;1.930;2023-09-30T05:19:02;101389.91;;;17.53;81.63
33625;BME280;19962;47.820;1.930;2023-09-30T05:21:30;101381.03;;;17.51;81.49
33625;BME280;19962;47.820;1.930;2023-09-30T05:23:56;101368.81;;;17.52;81.56
33625;BME280;19962;47.820;1.930;2023-09-30T05:26:22;101370.50;;;17.53;81.14
33625;BME280;19962;47.820;1.930;2023-09-30T05:28:49;101369.56;;;17.48;81.44
33625;BME280;19962;47.820;1.930;2023-09-30T05:31:15;101361.50;;;17.46;81.50
33625;BME280;19962;47.820;1.930;2023-09-30T05:33:41;101364.81;;;17.43;82.13
33625;BME280;19962;47.820;1.930;2023-09-30T05:36:07;101381.84;;;17.35;82.20
33625;BME280;19962;47.820;1.930;2023-09-30T05:38:33;101374.47;;;17.24;82.48
33625;BME280;19962;47.820;1.930;2023-09-30T05:40:59;101377.81;;;17.26;82.52
33625;BME280;19962;47.820;1.930;2023-09-30T05:43:26;101378.41;;;17.28;82.60
33625;BME280;19962;47.820;1.930;2023-09-30T05:45:53;101390.09;;;17.30;82.46
33625;BME280;19962;47.820;1.930;2023-09-30T05:48:23;101385.31;;;17.42;82.21
33625;BME280;19962;47.820;1.930;2023-09-30T05:50:49;101378.69;;;17.43;82.08
33625;BME280;19962;47.820;1.930;2023-09-30T05:53:16;101401.97;;;17.42;81.97
33625;BME280;19962;47.820;1.930;2023-09-30T05:55:42;101405.22;;;17.39;82.19
33625;BME280;19962;47.820;1.930;2023-09-30T05:58:15;101412.22;;;17.42;82.42
33625;BME280;19962;47.820;1.930;2023-09-30T06:00:42;101415.38;;;17.50;81.95
33625;BME280;19962;47.820;1.930;2023-09-30T06:03:09;101426.06;;;17.58;81.52
33625;BME280;19962;47.820;1.930;2023-09-30T06:05:40;101433.56;;;17.58;81.45
33625;BME280;19962;47.820;1.930;2023-09-30T06:08:07;101432.09;;;17.55;81.33
33625;BME280;19962;47.820;1.930;2023-09-30T06:10:36;101441.94;;;17.46;81.80
33625;BME280;19962;47.820;1.930;2023-09-30T06:13:04;101444.47;;;17.48;81.89
33625;BME280;19962;47.820;1.930;2023-09-30T06:15:31;101439.00;;;17.52;81.46
33625;BME280;19962;47.820;1.930;2023-09-30T06:17:58;101425.97;;;17.53;81.46
33625;BME280;19962;47.820;1.930;2023-09-30T06:20:26;101419.94;;;17.56;81.65
33625;BME280;19962;47.820;1.930;2023-09-30T06:22:53;101433.28;;;17.59;81.09
33625;BME280;19962;47.820;1.930;2023-09-30T06:25:22;101446.06;;;17.60;81.16
33625;BME280;19962;47.820;1.930;2023-09-30T06:27:50;101435.81;;;17.61;81.08
33625;BME280;19962;47.820;1.930;2023-09-30T06:30:19;101436.13;;;17.64;80.91
33625;BME280;19962;47.820;1.930;2023-09-30T06:32:47;101434.50;;;17.68;80.98
33625;BME280;19962;47.820;1.930;2023-09-30T06:35:14;101431.91;;;17.78;80.47
33625;BME280;19962;47.820;1.930;2023-09-30T06:37:41;101425.69;;;17.71;80.58
33625;BME280;19962;47.820;1.930;2023-09-30T06:40:09;101420.47;;;17.75;80.50
33625;BME280;19962;47.820;1.930;2023-09-30T06:42:37;101412.66;;;17.72;80.68
33625;BME280;19962;47.820;1.930;2023-09-30T06:45:06;101428.47;;;17.71;80.63
33625;BME280;19962;47.820;1.930;2023-09-30T06:47:37;101422.91;;;17.71;80.56
33625;BME280;19962;47.820;1.930;2023-09-30T06:50:05;101416.78;;;17.69;80.31
33625;BME280;19962;47.820;1.930;2023-09-30T06:52:38;101427.53;;;17.66;80.38
33625;BME280;19962;47.820;1.930;2023-09-30T06:55:06;101437.22;;;17.63;80.84
33625;BME280;19962;47.820;1.930;2023-09-30T06:57:36;101440.84;;;17.64;81.02
33625;BME280;19962;47.820;1.930;2023-09-30T07:00:06;101453.94;;;17.68;80.87
33625;BME280;19962;47.820;1.930;2023-09-30T07:02:36;101447.88;;;17.71;80.75
33625;BME280;19962;47.820;1.930;2023-09-30T07:05:07;101447.78;;;17.83;80.39
33625;BME280;19962;47.820;1.930;2023-09-30T07:07:33;101445.84;;;17.83;79.98
33625;BME280;19962;47.820;1.930;2023-09-30T07:09:59;101450.00;;;17.81;80.25
33625;BME280;19962;47.820;1.930;2023-09-30T07:12:25;101443.34;;;17.82;80.22
33625;BME280;19962;47.820;1.930;2023-09-30T07:14:52;101441.97;;;17.84;80.10
33625;BME280;19962;47.820;1.930;2023-09-30T07:17:18;101444.19;;;17.82;80.16
33625;BME280;19962;47.820;1.930;2023-09-30T07:19:44;101443.00;;;17.78;80.40
33625;BME280;19962;47.820;1.930;2023-09-30T07:22:11;101435.00;;;17.82;80.33
33625;BME280;19962;47.820;1.930;2023-09-30T07:24:37;101433.09;;;17.82;80.45
33625;BME280;19962;47.820;1.930;2023-09-30T07:27:05;101431.97;;;17.83;80.32
33625;BME280;19962;47.820;1.930;2023-09-30T07:29:32;101427.53;;;17.82;80.37
33625;BME280;19962;47.820;1.930;2023-09-30T07:31:59;101441.47;;;17.87;80.31
33625;BME280;19962;47.820;1.930;2023-09-30T07:34:25;101442.03;;;17.89;80.09
33625;BME280;19962;47.820;1.930;2023-09-30T07:36:51;101437.41;;;17.95;80.21
33625;BME280;19962;47.820;1.930;2023-09-30T07:39:17;101437.16;;;17.96;79.73
33625;BME280;19962;47.820;1.930;2023-09-30T07:41:43;101443.78;;;17.95;79.84
33625;BME280;19962;47.820;1.930;2023-09-30T07:44:10;101455.06;;;17.89;80.37
33625;BME280;19962;47.820;1.930;2023-09-30T07:46:36;101447.84;;;17.88;80.49
33625;BME280;19962;47.820;1.930;2023-09-30T07:49:02;101443.47;;;17.92;80.31
33625;BME280;19962;47.820;1.930;2023-09-30T07:51:29;101436.63;;;17.99;80.08
33625;BME280;19962;47.820;1.930;2023-09-30T07:53:58;101435.53;;;18.00;79.97
33625;BME280;19962;47.820;1.930;2023-09-30T07:56:24;101430.81;;;18.01;80.08
33625;BME280;19962;47.820;1.930;2023-09-30T07:58:50;101426.69;;;18.03;80.14
33625;BME280;19962;47.820;1.930;2023-09-30T08:01:17;101429.47;;;18.03;80.29
33625;BME280;19962;47.820;1.930;2023-09-30T08:03:43;101431.97;;;18.05;80.41
33625;BME280;19962;47.820;1.930;2023-09-30T08:06:09;101423.19;;;18.13;80.24
33625;BME280;19962;47.820;1.930;2023-09-30T08:08:36;101427.41;;;18.15;80.35
33625;BME280;19962;47.820;1.930;2023-09-30T08:11:02;101433.59;;;18.22;80.39
33625;BME280;19962;47.820;1.930;2023-09-30T08:13:29;101422.81;;;18.26;80.32
33625;BME280;19962;47.820;1.930;2023-09-30T08:15:55;101430.03;;;18.27;80.39
33625;BME280;19962;47.820;1.930;2023-09-30T08:18:22;101441.47;;;18.30;80.28
33625;BME280;19962;47.820;1.930;2023-09-30T08:20:48;101441.69;;;18.45;80.02
33625;BME280;19962;47.820;1.930;2023-09-30T08:23:15;101446.34;;;18.66;79.52
33625;BME280;19962;47.820;1.930;2023-09-30T08:25:41;101456.53;;;18.82;78.82
33625;BME280;19962;47.820;1.930;2023-09-30T08:28:07;101451.91;;;18.93;79.00
33625;BME280;19962;47.820;1.930;2023-09-30T08:30:35;101465.75;;;19.14;78.14
33625;BME280;19962;47.820;1.930;2023-09-30T08:33:02;101474.47;;;18.96;78.61
33625;BME280;19962;47.820;1.930;2023-09-30T08:35:37;101478.97;;;19.02;78.95
33625;BME280;19962;47.820;1.930;2023-09-30T08:38:04;101475.66;;;19.05;79.00
33625;BME280;19962;47.820;1.930;2023-09-30T08:40:30;101479.50;;;19.26;78.55
33625;BME280;19962;47.820;1.930;2023-09-30T08:42:57;101486.25;;;19.35;78.73
33625;BME280;19962;47.820;1.930;2023-09-30T08:45:23;101482.22;;;19.47;78.56
33625;BME280;19962;47.820;1.930;2023-09-30T08:47:49;101483.41;;;19.56;78.84
33625;BME280;19962;47.820;1.930;2023-09-30T08:50:17;101481.78;;;19.65;78.08
33625;BME280;19962;47.820;1.930;2023-09-30T08:52:44;101480.16;;;19.69;78.37
33625;BME280;19962;47.820;1.930;2023-09-30T08:55:13;101477.91;;;19.66;78.58
33625;BME280;19962;47.820;1.930;2023-09-30T08:57:43;101471.66;;;19.54;78.96
33625;BME280;19962;47.820;1.930;2023-09-30T09:00:10;101466.63;;;19.51;78.99
33625;BME280;19962;47.820;1.930;2023-09-30T09:02:37;101459.38;;;19.50;79.44
33625;BME280;19962;47.820;1.930;2023-09-30T09:05:04;101458.88;;;19.53;79.79
33625;BME280;19962;47.820;1.930;2023-09-30T09:07:30;101461.06;;;19.51;79.75
33625;BME280;19962;47.820;1.930;2023-09-30T09:12:33;101473.03;;;19.52;80.21
33625;BME280;19962;47.820;1.930;2023-09-30T09:14:59;101457.50;;;19.56;80.18
33625;BME280;19962;47.820;1.930;2023-09-30T09:17:40;101460.06;;;19.67;81.43
33625;BME280;19962;47.820;1.930;2023-09-30T09:20:11;101463.47;;;19.74;80.54
33625;BME280;19962;47.820;1.930;2023-09-30T09:22:43;101469.31;;;19.73;80.98
33625;BME280;19962;47.820;1.930;2023-09-30T09:25:10;101474.66;;;19.84;80.60
33625;BME280;19962;47.820;1.930;2023-09-30T09:27:37;101480.19;;;19.74;81.05
33625;BME280;19962;47.820;1.930;2023-09-30T09:33:01;101474.66;;;19.79;81.48
33625;BME280;19962;47.820;1.930;2023-09-30T09:35:29;101475.78;;;19.83;81.47
33625;BME280;19962;47.820;1.930;2023-09-30T09:40:41;101473.59;;;19.95;82.83
33625;BME280;19962;47.820;1.930;2023-09-30T09:43:09;101473.16;;;20.08;81.84
33625;BME280;19962;47.820;1.930;2023-09-30T09:45:36;101465.41;;;20.15;82.03
33625;BME280;19962;47.820;1.930;2023-09-30T09:48:06;101472.13;;;20.24;82.15
33625;BME280;19962;47.820;1.930;2023-09-30T09:50:33;101464.94;;;20.33;82.02
33625;BME280;19962;47.820;1.930;2023-09-30T09:53:02;101468.28;;;20.35;82.13
33625;BME280;19962;47.820;1.930;2023-09-30T09:55:30;101473.84;;;20.35;82.13
33625;BME280;19962;47.820;1.930;2023-09-30T09:57:58;101469.41;;;20.39;81.78
33625;BME280;19962;47.820;1.930;2023-09-30T10:00:27;101468.00;;;20.42;82.21
33625;BME280;19962;47.820;1.930;2023-09-30T10:02:55;101478.91;;;20.48;81.90
33625;BME280;19962;47.820;1.930;2023-09-30T10:05:22;101488.13;;;20.49;81.83
33625;BME280;19962;47.820;1.930;2023-09-30T10:08:05;101483.44;;;20.59;82.44
33625;BME280;19962;47.820;1.930;2023-09-30T10:10:36;101469.53;;;20.74;82.14
33625;BME280;19962;47.820;1.930;2023-09-30T10:13:06;101472.09;;;20.91;81.81
33625;BME280;19962;47.820;1.930;2023-09-30T10:20:31;101466.81;;;20.94;81.88
33625;BME280;19962;47.820;1.930;2023-09-30T10:23:20;101461.25;;;20.94;82.41
33625;BME280;19962;47.820;1.930;2023-09-30T10:25:47;101456.22;;;21.01;82.17
33625;BME280;19962;47.820;1.930;2023-09-30T10:31:16;101443.38;;;21.05;81.10
33625;BME280;19962;47.820;1.930;2023-09-30T10:36:36;101451.75;;;21.10;81.67
33625;BME280;19962;47.820;1.930;2023-09-30T10:39:13;101454.53;;;21.15;81.87
33625;BME280;19962;47.820;1.930;2023-09-30T10:46:52;101439.47;;;21.41;80.62
33625;BME280;19962;47.820;1.930;2023-09-30T10:51:51;101425.78;;;21.55;79.91
33625;BME280;19962;47.820;1.930;2023-09-30T10:54:25;101422.13;;;21.59;80.51
33625;BME280;19962;47.820;1.930;2023-09-30T10:56:51;101426.63;;;21.70;79.40
33625;BME280;19962;47.820;1.930;2023-09-30T10:59:25;101423.56;;;21.72;78.84
33625;BME280;19962;47.820;1.930;2023-09-30T11:01:52;101419.38;;;21.74;78.56
33625;BME280;19962;47.820;1.930;2023-09-30T11:04:21;101425.22;;;21.68;78.31
33625;BME280;19962;47.820;1.930;2023-09-30T11:06:48;101424.38;;;21.72;78.79
33625;BME280;19962;47.820;1.930;2023-09-30T11:09:20;101427.16;;;21.67;78.93
33625;BME280;19962;47.820;1.930;2023-09-30T11:11:51;101435.00;;;21.65;78.64
33625;BME280;19962;47.820;1.930;2023-09-30T11:14:28;101436.69;;;21.71;78.72
33625;BME280;19962;47.820;1.930;2023-09-30T11:17:05;101433.03;;;21.71;78.23
33625;BME280;19962;47.820;1.930;2023-09-30T11:19:46;101434.16;;;21.65;77.72
33625;BME280;19962;47.820;1.930;2023-09-30T11:22:14;101434.69;;;21.67;77.64
33625;BME280;19962;47.820;1.930;2023-09-30T11:24:41;101435.00;;;21.70;77.36
33625;BME280;19962;47.820;1.930;2023-09-30T11:27:07;101442.25;;;21.71;77.30
33625;BME280;19962;47.820;1.930;2023-09-30T11:29:34;101442.25;;;21.66;76.68
33625;BME280;19962;47.820;1.930;2023-09-30T11:32:01;101441.69;;;21.59;76.79
33625;BME280;19962;47.820;1.930;2023-09-30T11:34:36;101444.50;;;21.49;77.88
33625;BME280;19962;47.820;1.930;2023-09-30T11:37:03;101441.44;;;21.41;77.71
33625;BME280;19962;47.820;1.930;2023-09-30T11:39:30;101441.72;;;21.44;77.32
33625;BME280;19962;47.820;1.930;2023-09-30T11:41:57;101435.00;;;21.50;77.15
33625;BME280;19962;47.820;1.930;2023-09-30T11:44:24;101425.22;;;21.58;76.16
33625;BME280;19962;47.820;1.930;2023-09-30T11:47:00;101426.63;;;21.70;75.71
33625;BME280;19962;47.820;1.930;2023-09-30T11:49:32;101424.94;;;21.79;75.31
33625;BME280;19962;47.820;1.930;2023-09-30T11:52:00;101423.78;;;21.85;74.54
33625;BME280;19962;47.820;1.930;2023-09-30T11:54:40;101418.22;;;21.80;71.23
33625;BME280;19962;47.820;1.930;2023-09-30T11:57:15;101410.94;;;21.89;72.06
33625;BME280;19962;47.820;1.930;2023-09-30T11:59:42;101409.75;;;22.00;71.44
33625;BME280;19962;47.820;1.930;2023-09-30T12:02:09;101404.72;;;22.07;70.79
33625;BME280;19962;47.820;1.930;2023-09-30T12:04:37;101396.59;;;22.11;71.07
33625;BME280;19962;47.820;1.930;2023-09-30T12:07:03;101395.75;;;22.15;70.87
33625;BME280;19962;47.820;1.930;2023-09-30T12:09:30;101390.97;;;22.16;70.38
33625;BME280;19962;47.820;1.930;2023-09-30T12:11:57;101386.78;;;22.13;70.47
33625;BME280;19962;47.820;1.930;2023-09-30T12:14:24;101385.69;;;22.14;70.10
33625;BME280;19962;47.820;1.930;2023-09-30T12:16:51;101382.31;;;22.12;69.48
33625;BME280;19962;47.820;1.930;2023-09-30T12:19:17;101391.03;;;22.06;69.45
33625;BME280;19962;47.820;1.930;2023-09-30T12:21:44;101382.66;;;22.01;69.34
33625;BME280;19962;47.820;1.930;2023-09-30T12:24:15;101391.06;;;21.96;69.54
33625;BME280;19962;47.820;1.930;2023-09-30T12:26:50;101389.97;;;21.92;69.95
33625;BME280;19962;47.820;1.930;2023-09-30T12:29:22;101392.22;;;21.90;70.37
33625;BME280;19962;47.820;1.930;2023-09-30T12:31:50;101389.13;;;21.86;70.46
33625;BME280;19962;47.820;1.930;2023-09-30T12:34:16;101388.31;;;21.86;70.31
33625;BME280;19962;47.820;1.930;2023-09-30T12:36:43;101388.00;;;21.97;69.96
33625;BME280;19962;47.820;1.930;2023-09-30T12:39:10;101390.78;;;21.97;69.17
33625;BME280;19962;47.820;1.930;2023-09-30T12:41:43;101385.16;;;22.07;67.69
33625;BME280;19962;47.820;1.930;2023-09-30T12:44:10;101384.28;;;22.17;67.82
33625;BME280;19962;47.820;1.930;2023-09-30T12:46:36;101375.03;;;22.21;67.84
33625;BME280;19962;47.820;1.930;2023-09-30T12:49:05;101371.13;;;22.17;67.94
33625;BME280;19962;47.820;1.930;2023-09-30T12:51:33;101362.75;;;22.12;67.67
33625;BME280;19962;47.820;1.930;2023-09-30T12:54:00;101365.56;;;22.12;68.00
33625;BME280;19962;47.820;1.930;2023-09-30T12:56:26;101363.31;;;22.09;68.35
33625;BME280;19962;47.820;1.930;2023-09-30T12:58:55;101358.84;;;22.13;67.54
33625;BME280;19962;47.820;1.930;2023-09-30T13:01:22;101356.84;;;22.24;67.34
33625;BME280;19962;47.820;1.930;2023-09-30T13:03:48;101350.09;;;22.25;67.68
33625;BME280;19962;47.820;1.930;2023-09-30T13:06:16;101353.78;;;22.20;67.47
33625;BME280;19962;47.820;1.930;2023-09-30T13:08:43;101343.78;;;22.14;67.29
33625;BME280;19962;47.820;1.930;2023-09-30T13:11:09;101344.34;;;22.11;67.32
33625;BME280;19962;47.820;1.930;2023-09-30T13:13:35;101340.72;;;22.06;67.52
33625;BME280;19962;47.820;1.930;2023-09-30T13:16:02;101337.09;;;22.05;66.79
33625;BME280;19962;47.820;1.930;2023-09-30T13:18:31;101337.91;;;22.06;66.72
33625;BME280;19962;47.820;1.930;2023-09-30T13:20:58;101341.28;;;22.03;67.19